EKAH/AAR METAR and TAF weather

Enter ICAO airport designator
Station Type Date Time Source
EKAH METAR 2022/06/28 08:50 UTC NOAA

EKAH 280850Z AUTO 25004KT 180V350 9999 NCD 19/14 Q1020


Station Type Date Time Source
EKAH Decoded METAR 2022/06/28 08:50 UTC NOAA

Tirstrup, Denmark (EKAH) 56-18N 010-37E 25M
Jun 28, 2022 - 04:50 AM EDT / 2022.06.28 0850 UTC
Wind: from the WSW (250 degrees) at 5 MPH (4 KT) (direction variable):0
Visibility: greater than 7 mile(s):0
Temperature: 66 F (19 C)
Dew Point: 57 F (14 C)
Relative Humidity: 72%
Pressure (altimeter): 30.12 in. Hg (1020 hPa)
ob: EKAH 280850Z AUTO 25004KT 180V350 9999 NCD 19/14 Q1020
cycle: 9

Station Type Date Time Source
EKAH TAF 2022/06/28 06:31 UTC NOAA

TAF EKAH 280500Z 2806/2906 31010KT 9999 FEW045
BECMG 2900/2903 25002KT PROB40 2900/2903 0100 FG VV001

Example: see airport list